STL weather

St Louis Lambert International Airport
St Louis, Missouri, United States

Public forecast

Using degrees Fahrenheit for public forecast. Weather courtesy of forecast.io.

Current aviation weather report (METAR) for St Louis Lambert International Airport

Retrieved 2020/01/19 08:51 UTC (53 minutes ago):

KSTL 190851Z 29018G29KT 10SM CLR M07/M15 A3032 RMK AO2 PK WND 29029/0848 SLP281 T10721150 53008

Aviation forecast (TAF) for St Louis Lambert International Airport

Forecast is more than 6 hours old.

Retrieved 2020-01-19 00:27 UTC (9 hours ago):

TAF KSTL 182324Z 1900/2006 29015G25KT P6SM SCT250 FM191600 30014G24KT P6SM SCT030 FM200000 32009KT P6SM FEW250